createdAt,value
2023-04-07T00:00:30.080Z,8.25
2023-04-07T00:01:30.127Z,8.25
2023-04-07T00:02:30.056Z,8.25
2023-04-07T00:03:30.201Z,8.27
2023-04-07T00:04:30.095Z,8.28
2023-04-07T00:05:29.985Z,8.27
2023-04-07T00:06:30.008Z,8.25
2023-04-07T00:07:29.959Z,8.22
2023-04-07T00:08:29.954Z,8.21
2023-04-07T00:09:29.953Z,8.21
2023-04-07T00:10:29.934Z,8.22
2023-04-07T00:11:29.928Z,8.22
2023-04-07T00:12:29.918Z,8.21
2023-04-07T00:13:30.809Z,8.22
2023-04-07T00:14:29.891Z,8.24
2023-04-07T00:15:29.882Z,8.22
2023-04-07T00:16:29.879Z,8.21
2023-04-07T00:17:29.873Z,8.22
2023-04-07T00:18:29.855Z,8.20
2023-04-07T00:19:29.834Z,8.20
2023-04-07T00:20:29.820Z,8.20
2023-04-07T00:21:29.850Z,8.20
2023-04-07T00:22:29.806Z,8.18
2023-04-07T00:23:29.777Z,8.17
2023-04-07T00:24:34.328Z,8.17
2023-04-07T00:25:29.761Z,8.18
2023-04-07T00:26:29.767Z,8.18
2023-04-07T00:27:29.733Z,8.18
2023-04-07T00:28:29.730Z,8.20
2023-04-07T00:29:29.709Z,8.17
2023-04-07T00:30:29.708Z,8.18
2023-04-07T00:31:29.773Z,8.18
2023-04-07T00:32:29.720Z,8.18
2023-04-07T00:33:29.667Z,8.20
2023-04-07T00:34:29.668Z,8.17
2023-04-07T00:35:29.669Z,8.14
2023-04-07T00:36:29.656Z,8.20
2023-04-07T00:37:29.618Z,8.20
2023-04-07T00:38:29.614Z,8.20
2023-04-07T00:39:29.606Z,8.21
2023-04-07T00:40:29.608Z,8.20
2023-04-07T00:41:29.603Z,8.20
2023-04-07T00:42:29.570Z,8.17
2023-04-07T00:43:29.578Z,8.13
2023-04-07T00:44:29.534Z,8.13
2023-04-07T00:45:29.536Z,8.13
2023-04-07T00:46:29.559Z,8.14
2023-04-07T00:47:29.538Z,8.13
2023-04-07T00:48:29.485Z,8.13
2023-04-07T00:49:29.496Z,8.14
2023-04-07T00:50:29.481Z,8.18
2023-04-07T00:51:29.496Z,8.17
2023-04-07T00:52:29.445Z,8.18
2023-04-07T00:53:29.448Z,8.18
2023-04-07T00:54:29.424Z,8.20
2023-04-07T00:55:29.414Z,8.20
2023-04-07T00:56:29.430Z,8.20
2023-04-07T00:57:29.407Z,8.20
2023-04-07T00:58:29.390Z,8.17
2023-04-07T00:59:29.371Z,8.17
2023-04-07T01:00:29.365Z,8.17
2023-04-07T01:01:29.594Z,8.14
2023-04-07T01:02:29.658Z,8.17
2023-04-07T01:03:29.664Z,8.18
2023-04-07T01:04:29.451Z,8.18
2023-04-07T01:05:29.305Z,8.18
2023-04-07T01:06:29.296Z,8.18
2023-04-07T01:07:29.280Z,8.20
2023-04-07T01:08:29.260Z,8.17
2023-04-07T01:09:29.259Z,8.17
2023-04-07T01:10:29.254Z,8.18
2023-04-07T01:11:29.251Z,8.18
2023-04-07T01:12:29.220Z,8.20
2023-04-07T01:13:29.219Z,8.20
2023-04-07T01:14:29.193Z,8.21
2023-04-07T01:15:29.182Z,8.20
2023-04-07T01:16:29.230Z,8.21
2023-04-07T01:17:29.212Z,8.18
2023-04-07T01:18:29.151Z,8.20
2023-04-07T01:19:29.136Z,8.20
2023-04-07T01:20:29.131Z,8.22
2023-04-07T01:21:29.152Z,8.22
2023-04-07T01:22:29.142Z,8.22
2023-04-07T01:23:29.087Z,8.22
2023-04-07T01:24:29.076Z,8.24
2023-04-07T01:25:29.066Z,8.24
2023-04-07T01:26:29.069Z,8.24
2023-04-07T01:27:29.055Z,8.24
2023-04-07T01:28:29.033Z,8.24
2023-04-07T01:29:29.021Z,8.22
2023-04-07T01:30:29.020Z,8.24
2023-04-07T01:31:29.046Z,8.24
2023-04-07T01:32:29.022Z,8.25
2023-04-07T01:33:28.990Z,8.24
2023-04-07T01:34:28.961Z,8.25
2023-04-07T01:35:28.951Z,8.24
2023-04-07T01:36:28.974Z,8.22
2023-04-07T01:37:28.935Z,8.21
2023-04-07T01:38:28.918Z,8.21
2023-04-07T01:39:28.911Z,8.21
2023-04-07T01:40:28.892Z,8.20
2023-04-07T01:41:28.901Z,8.21
2023-04-07T01:42:28.887Z,8.21
2023-04-07T01:43:28.863Z,8.20
2023-04-07T01:44:28.848Z,8.20
2023-04-07T01:45:28.854Z,8.20
2023-04-07T01:46:28.825Z,8.20
2023-04-07T01:47:28.920Z,8.18
2023-04-07T01:48:28.804Z,8.18
2023-04-07T01:49:28.805Z,8.20
2023-04-07T01:50:28.788Z,8.20
2023-04-07T01:51:28.782Z,8.20
2023-04-07T01:52:28.781Z,8.18
2023-04-07T01:53:28.757Z,8.20
2023-04-07T01:54:28.738Z,8.20
2023-04-07T01:55:28.725Z,8.18
2023-04-07T01:56:28.711Z,8.18
2023-04-07T01:57:28.725Z,8.20
2023-04-07T01:58:28.698Z,8.20
2023-04-07T01:59:28.685Z,8.20
2023-04-07T02:00:28.666Z,8.21
2023-04-07T02:01:28.760Z,8.18
2023-04-07T02:02:28.760Z,8.20
2023-04-07T02:03:28.727Z,8.21
2023-04-07T02:04:28.626Z,8.20
2023-04-07T02:05:28.625Z,8.20
2023-04-07T02:06:28.596Z,8.17
2023-04-07T02:07:28.638Z,8.14
2023-04-07T02:08:29.555Z,8.14
2023-04-07T02:09:28.572Z,8.17
2023-04-07T02:10:28.557Z,8.17
2023-04-07T02:11:28.553Z,8.17
2023-04-07T02:12:28.557Z,8.20
2023-04-07T02:13:28.519Z,8.17
2023-04-07T02:14:28.508Z,8.18
2023-04-07T02:15:28.517Z,8.20
2023-04-07T02:16:28.552Z,8.21
2023-04-07T02:17:28.538Z,8.20
2023-04-07T02:18:28.471Z,8.17
2023-04-07T02:19:28.460Z,8.18
2023-04-07T02:20:28.448Z,8.17
2023-04-07T02:21:28.432Z,8.17
2023-04-07T02:22:28.435Z,8.14
2023-04-07T02:23:28.427Z,8.17
2023-04-07T02:24:28.392Z,8.18
2023-04-07T02:25:28.417Z,8.18
2023-04-07T02:26:28.384Z,8.13
2023-04-07T02:27:28.389Z,8.14
2023-04-07T02:28:28.344Z,8.14
2023-04-07T02:29:28.350Z,8.17
2023-04-07T02:30:28.339Z,8.18
2023-04-07T02:31:28.338Z,8.13
2023-04-07T02:32:28.349Z,8.14
2023-04-07T02:33:28.291Z,8.14
2023-04-07T02:34:28.277Z,8.13
2023-04-07T02:35:28.273Z,8.14
2023-04-07T02:36:28.282Z,8.14
2023-04-07T02:37:28.274Z,8.14
2023-04-07T02:38:28.243Z,8.17
2023-04-07T02:39:28.225Z,8.18
2023-04-07T02:40:28.225Z,8.17
2023-04-07T02:41:28.206Z,8.17
2023-04-07T02:42:28.202Z,8.17
2023-04-07T02:43:28.183Z,8.17
2023-04-07T02:44:28.166Z,8.18
2023-04-07T02:45:28.156Z,8.17
2023-04-07T02:46:28.161Z,8.17
2023-04-07T02:47:28.184Z,8.14
2023-04-07T02:48:28.122Z,8.13
2023-04-07T02:49:28.112Z,8.09
2023-04-07T02:50:28.092Z,8.10
2023-04-07T02:51:28.085Z,8.13
2023-04-07T02:52:28.105Z,8.14
2023-04-07T02:53:28.065Z,8.13
2023-04-07T02:54:28.044Z,8.10
2023-04-07T02:55:28.053Z,8.10
2023-04-07T02:56:28.024Z,8.09
2023-04-07T02:57:28.030Z,8.10
2023-04-07T02:58:28.005Z,8.12
2023-04-07T02:59:27.995Z,8.10
2023-04-07T03:00:27.982Z,8.12
2023-04-07T03:01:28.138Z,8.12
2023-04-07T03:02:28.111Z,8.12
2023-04-07T03:03:28.109Z,8.13
2023-04-07T03:04:27.969Z,8.12
2023-04-07T03:05:28.004Z,8.12
2023-04-07T03:06:27.942Z,8.10
2023-04-07T03:07:27.934Z,8.12
2023-04-07T03:08:27.906Z,8.10
2023-04-07T03:09:27.879Z,8.09
2023-04-07T03:10:27.862Z,8.09
2023-04-07T03:11:27.854Z,8.09
2023-04-07T03:12:27.870Z,8.10
2023-04-07T03:13:27.834Z,8.10
2023-04-07T03:14:27.864Z,8.12
2023-04-07T03:15:27.808Z,8.14
2023-04-07T03:16:27.814Z,8.13
2023-04-07T03:17:27.844Z,8.13
2023-04-07T03:18:27.789Z,8.10
2023-04-07T03:19:27.786Z,8.10
2023-04-07T03:20:27.749Z,8.12
2023-04-07T03:21:27.758Z,8.12
2023-04-07T03:22:27.765Z,8.10
2023-04-07T03:23:27.719Z,8.12
2023-04-07T03:24:27.713Z,8.10
2023-04-07T03:25:27.700Z,8.09
2023-04-07T03:26:27.676Z,8.10
2023-04-07T03:27:27.728Z,8.12
2023-04-07T03:28:27.660Z,8.10
2023-04-07T03:29:27.773Z,8.10
2023-04-07T03:30:27.632Z,8.09
2023-04-07T03:31:27.647Z,8.09
2023-04-07T03:32:27.637Z,8.10
2023-04-07T03:33:27.614Z,8.07
2023-04-07T03:34:27.602Z,8.10
2023-04-07T03:35:27.596Z,8.09
2023-04-07T03:36:27.572Z,8.06
2023-04-07T03:37:27.609Z,8.04
2023-04-07T03:38:27.539Z,8.04
2023-04-07T03:39:27.540Z,8.04
2023-04-07T03:40:27.542Z,8.06
2023-04-07T03:41:27.522Z,8.03
2023-04-07T03:42:27.514Z,8.03
2023-04-07T03:43:27.486Z,8.02
2023-04-07T03:44:27.478Z,8.03
2023-04-07T03:45:27.472Z,8.04
2023-04-07T03:46:27.500Z,8.02
2023-04-07T03:47:27.524Z,8.00
2023-04-07T03:48:28.728Z,8.02
2023-04-07T03:49:27.446Z,8.00
2023-04-07T03:50:27.430Z,8.00
2023-04-07T03:51:27.405Z,8.02
2023-04-07T03:52:27.437Z,8.02
2023-04-07T03:53:27.384Z,7.99
2023-04-07T03:54:27.376Z,8.00
2023-04-07T03:55:27.355Z,7.96
2023-04-07T03:56:28.783Z,7.99
2023-04-07T03:57:27.361Z,8.00
2023-04-07T03:58:27.314Z,7.99
2023-04-07T03:59:27.314Z,8.02
2023-04-07T04:00:27.300Z,8.02
2023-04-07T04:01:27.328Z,8.00
2023-04-07T04:02:27.329Z,8.00
2023-04-07T04:03:27.395Z,8.02
2023-04-07T04:04:27.276Z,8.02
2023-04-07T04:05:27.259Z,7.99
2023-04-07T04:06:27.229Z,8.02
2023-04-07T04:07:27.256Z,8.00
2023-04-07T04:08:27.242Z,8.02
2023-04-07T04:09:27.200Z,8.00
2023-04-07T04:10:27.201Z,7.99
2023-04-07T04:11:27.169Z,7.99
2023-04-07T04:12:27.179Z,7.96
2023-04-07T04:13:27.159Z,7.95
2023-04-07T04:14:27.142Z,7.96
2023-04-07T04:15:27.125Z,7.96
2023-04-07T04:16:27.170Z,7.95
2023-04-07T04:17:27.192Z,7.96
2023-04-07T04:18:27.092Z,7.95
2023-04-07T04:19:27.086Z,7.94
2023-04-07T04:20:27.076Z,7.95
2023-04-07T04:21:27.066Z,7.95
2023-04-07T04:22:27.060Z,7.96
2023-04-07T04:23:27.067Z,7.99
2023-04-07T04:24:27.030Z,8.00
2023-04-07T04:25:27.038Z,7.99
2023-04-07T04:26:27.019Z,7.99
2023-04-07T04:27:27.012Z,8.00
2023-04-07T04:28:27.002Z,8.00
2023-04-07T04:29:26.980Z,7.96
2023-04-07T04:30:26.977Z,7.96
2023-04-07T04:31:26.989Z,7.96
2023-04-07T04:32:26.979Z,8.00
2023-04-07T04:33:26.923Z,7.96
2023-04-07T04:34:26.922Z,7.96
2023-04-07T04:35:26.908Z,7.95
2023-04-07T04:36:26.928Z,7.92
2023-04-07T04:37:26.900Z,7.94
2023-04-07T04:38:26.874Z,7.92
2023-04-07T04:39:26.862Z,7.92
2023-04-07T04:40:26.840Z,7.94
2023-04-07T04:41:26.836Z,7.95
2023-04-07T04:42:26.865Z,7.95
2023-04-07T04:43:26.818Z,7.94
2023-04-07T04:44:26.804Z,7.94
2023-04-07T04:45:26.792Z,7.94
2023-04-07T04:46:26.833Z,7.94
2023-04-07T04:47:26.785Z,7.92
2023-04-07T04:48:26.774Z,7.95
2023-04-07T04:49:26.742Z,7.95
2023-04-07T04:50:26.737Z,7.95
2023-04-07T04:51:26.716Z,7.95
2023-04-07T04:52:26.818Z,7.96
2023-04-07T04:53:26.695Z,7.94
2023-04-07T04:54:26.704Z,7.92
2023-04-07T04:55:26.676Z,7.88
2023-04-07T04:56:26.665Z,7.86
2023-04-07T04:57:26.699Z,7.89
2023-04-07T04:58:26.649Z,7.91
2023-04-07T04:59:26.631Z,7.94
2023-04-07T05:00:26.622Z,7.94
2023-04-07T05:01:26.664Z,7.96
2023-04-07T05:02:26.726Z,7.96
2023-04-07T05:03:26.906Z,7.95
2023-04-07T05:04:26.766Z,7.96
2023-04-07T05:05:26.550Z,7.96
2023-04-07T05:06:26.548Z,7.96
2023-04-07T05:07:26.561Z,7.96
2023-04-07T05:08:26.539Z,7.96
2023-04-07T05:09:26.508Z,7.99
2023-04-07T05:10:26.505Z,7.99
2023-04-07T05:11:26.486Z,7.99
2023-04-07T05:12:26.540Z,7.96
2023-04-07T05:13:26.462Z,7.99
2023-04-07T05:14:26.453Z,7.99
2023-04-07T05:15:26.447Z,7.99
2023-04-07T05:16:26.444Z,8.00
2023-04-07T05:17:26.432Z,8.00
2023-04-07T05:18:26.418Z,7.99
2023-04-07T05:19:26.399Z,7.99
2023-04-07T05:20:26.386Z,8.02
2023-04-07T05:21:26.378Z,7.99
2023-04-07T05:22:26.391Z,7.96
2023-04-07T05:23:26.362Z,7.95
2023-04-07T05:24:26.351Z,7.96
2023-04-07T05:25:26.335Z,7.95
2023-04-07T05:26:26.361Z,7.95
2023-04-07T05:27:26.340Z,7.95
2023-04-07T05:28:26.298Z,7.96
2023-04-07T05:29:26.344Z,7.94
2023-04-07T05:30:26.280Z,7.92
2023-04-07T05:31:26.264Z,7.95
2023-04-07T05:32:26.358Z,7.96
2023-04-07T05:33:26.230Z,7.95
2023-04-07T05:34:26.227Z,7.94
2023-04-07T05:35:26.207Z,7.95
2023-04-07T05:36:26.230Z,7.94
2023-04-07T05:37:26.212Z,7.94
2023-04-07T05:38:26.189Z,7.94
2023-04-07T05:39:26.171Z,7.94
2023-04-07T05:40:26.160Z,7.92
2023-04-07T05:41:26.176Z,7.91
2023-04-07T05:42:26.167Z,7.92
2023-04-07T05:43:26.135Z,7.91
2023-04-07T05:44:26.140Z,7.94
2023-04-07T05:45:26.145Z,7.95
2023-04-07T05:46:26.102Z,7.99
2023-04-07T05:47:26.224Z,8.02
2023-04-07T05:48:26.067Z,8.02
2023-04-07T05:49:26.073Z,8.02
2023-04-07T05:50:26.050Z,8.03
2023-04-07T05:51:26.027Z,8.04
2023-04-07T05:52:26.048Z,8.07
2023-04-07T05:53:26.012Z,8.10
2023-04-07T05:54:26.010Z,8.09
2023-04-07T05:55:26.003Z,8.10
2023-04-07T05:56:25.992Z,8.09
2023-04-07T05:57:25.996Z,8.09
2023-04-07T05:58:25.967Z,8.09
2023-04-07T05:59:25.939Z,8.10
2023-04-07T06:00:25.951Z,8.12
2023-04-07T06:01:27.024Z,8.12
2023-04-07T06:02:26.024Z,8.07
2023-04-07T06:03:25.948Z,8.09
2023-04-07T06:04:25.880Z,8.12
2023-04-07T06:05:25.970Z,8.12
2023-04-07T06:06:25.857Z,8.10
2023-04-07T06:07:25.864Z,8.09
2023-04-07T06:08:25.869Z,8.09
2023-04-07T06:09:25.823Z,8.10
2023-04-07T06:10:25.814Z,8.12
2023-04-07T06:11:25.798Z,8.12
2023-04-07T06:12:25.819Z,8.12
2023-04-07T06:13:25.776Z,8.14
2023-04-07T06:14:25.784Z,8.13
2023-04-07T06:15:25.757Z,8.17
2023-04-07T06:16:25.827Z,8.20
2023-04-07T06:17:25.793Z,8.18
2023-04-07T06:18:25.722Z,8.13
2023-04-07T06:19:25.732Z,8.14
2023-04-07T06:20:25.698Z,8.12
2023-04-07T06:21:25.691Z,8.13
2023-04-07T06:22:25.698Z,8.14
2023-04-07T06:23:25.669Z,8.14
2023-04-07T06:24:25.662Z,8.14
2023-04-07T06:25:25.638Z,8.18
2023-04-07T06:26:25.657Z,8.17
2023-04-07T06:27:25.648Z,8.20
2023-04-07T06:28:25.621Z,8.24
2023-04-07T06:29:25.594Z,8.22
2023-04-07T06:30:25.612Z,8.24
2023-04-07T06:31:25.584Z,8.22
2023-04-07T06:32:25.636Z,8.22
2023-04-07T06:33:25.634Z,8.22
2023-04-07T06:34:25.540Z,8.25
2023-04-07T06:35:25.538Z,8.25
2023-04-07T06:36:25.533Z,8.27
2023-04-07T06:37:25.520Z,8.29
2023-04-07T06:38:25.504Z,8.32
2023-04-07T06:39:25.484Z,8.31
2023-04-07T06:40:25.478Z,8.27
2023-04-07T06:41:25.609Z,8.25
2023-04-07T06:42:25.484Z,8.28
2023-04-07T06:43:25.435Z,8.29
2023-04-07T06:44:25.423Z,8.32
2023-04-07T06:45:25.424Z,8.36
2023-04-07T06:46:25.451Z,8.37
2023-04-07T06:47:25.431Z,8.37
2023-04-07T06:48:25.452Z,8.37
2023-04-07T06:49:25.389Z,8.40
2023-04-07T06:50:25.357Z,8.40
2023-04-07T06:51:25.363Z,8.40
2023-04-07T06:52:25.358Z,8.45
2023-04-07T06:53:25.317Z,8.46
2023-04-07T06:54:25.326Z,8.49
2023-04-07T06:55:25.294Z,8.49
2023-04-07T06:56:25.293Z,8.50
2023-04-07T06:57:25.295Z,8.50
2023-04-07T06:58:25.285Z,8.55
2023-04-07T06:59:25.265Z,8.54
2023-04-07T07:00:25.258Z,8.55
2023-04-07T07:01:25.368Z,8.55
2023-04-07T07:02:25.368Z,8.55
2023-04-07T07:03:25.455Z,8.57
2023-04-07T07:04:25.333Z,8.60
2023-04-07T07:05:25.200Z,8.58
2023-04-07T07:06:25.204Z,8.61
2023-04-07T07:07:25.182Z,8.65
2023-04-07T07:08:25.153Z,8.70
2023-04-07T07:09:25.141Z,8.68
2023-04-07T07:10:25.131Z,8.68
2023-04-07T07:11:25.112Z,8.68
2023-04-07T07:12:25.139Z,8.70
2023-04-07T07:13:25.088Z,8.71
2023-04-07T07:14:25.093Z,8.75
2023-04-07T07:15:25.103Z,8.73
2023-04-07T07:16:25.068Z,8.75
2023-04-07T07:17:25.104Z,8.76
2023-04-07T07:18:25.070Z,8.76
2023-04-07T07:19:25.230Z,8.82
2023-04-07T07:20:25.017Z,8.83
2023-04-07T07:21:25.006Z,8.86
2023-04-07T07:22:25.019Z,8.89
2023-04-07T07:23:25.030Z,8.93
2023-04-07T07:24:24.971Z,8.93
2023-04-07T07:25:24.962Z,8.96
2023-04-07T07:26:24.983Z,8.96
2023-04-07T07:27:24.960Z,8.94
2023-04-07T07:28:24.923Z,8.94
2023-04-07T07:29:24.918Z,8.97
2023-04-07T07:30:24.899Z,8.96
2023-04-07T07:31:24.911Z,8.98
2023-04-07T07:32:24.945Z,8.98
2023-04-07T07:33:24.892Z,8.97
2023-04-07T07:34:24.863Z,8.97
2023-04-07T07:35:24.851Z,8.98
2023-04-07T07:36:24.848Z,9.01
2023-04-07T07:37:24.915Z,9.03
2023-04-07T07:38:24.832Z,9.03
2023-04-07T07:39:24.830Z,9.06
2023-04-07T07:40:24.781Z,9.10
2023-04-07T07:41:24.830Z,9.08
2023-04-07T07:42:24.846Z,9.04
2023-04-07T07:43:24.773Z,9.10
2023-04-07T07:44:24.744Z,9.16
2023-04-07T07:45:24.740Z,9.19
2023-04-07T07:46:24.742Z,9.22
2023-04-07T07:47:24.753Z,9.24
2023-04-07T07:48:24.705Z,9.30
2023-04-07T07:49:24.697Z,9.20
2023-04-07T07:50:24.755Z,9.15
2023-04-07T07:51:24.655Z,9.08
2023-04-07T07:52:24.678Z,9.13
2023-04-07T07:53:25.020Z,9.17
2023-04-07T07:54:24.625Z,9.13
2023-04-07T07:55:24.613Z,9.10
2023-04-07T07:56:24.607Z,9.10
2023-04-07T07:57:24.615Z,9.13
2023-04-07T07:58:24.593Z,9.16
2023-04-07T07:59:24.600Z,9.15
2023-04-07T08:00:24.581Z,9.19
2023-04-07T08:01:24.555Z,9.22
2023-04-07T08:02:24.589Z,9.22
2023-04-07T08:03:24.612Z,9.23
2023-04-07T08:04:24.593Z,9.22
2023-04-07T08:05:24.616Z,9.13
2023-04-07T08:06:24.487Z,9.12
2023-04-07T08:07:24.502Z,9.13
2023-04-07T08:08:24.472Z,9.15
2023-04-07T08:09:24.464Z,9.13
2023-04-07T08:10:24.484Z,9.08
2023-04-07T08:11:24.446Z,9.04
2023-04-07T08:12:24.447Z,9.03
2023-04-07T08:13:24.424Z,9.01
2023-04-07T08:14:24.402Z,9.00
2023-04-07T08:15:24.386Z,9.01
2023-04-07T08:16:24.460Z,9.04
2023-04-07T08:17:24.425Z,9.04
2023-04-07T08:18:24.361Z,9.01
2023-04-07T08:19:24.338Z,9.01
2023-04-07T08:20:24.391Z,8.97
2023-04-07T08:21:24.315Z,8.97
2023-04-07T08:22:24.330Z,8.94
2023-04-07T08:23:24.311Z,8.97
2023-04-07T08:24:24.296Z,8.93
2023-04-07T08:25:24.301Z,8.93
2023-04-07T08:26:24.270Z,8.97
2023-04-07T08:27:24.265Z,9.03
2023-04-07T08:28:24.253Z,9.00
2023-04-07T08:29:24.228Z,9.03
2023-04-07T08:30:24.261Z,9.06
2023-04-07T08:31:24.246Z,9.10
2023-04-07T08:32:24.244Z,9.12
2023-04-07T08:33:24.174Z,9.13
2023-04-07T08:34:24.169Z,9.12
2023-04-07T08:35:24.160Z,9.13
2023-04-07T08:36:24.179Z,9.15
2023-04-07T08:37:24.171Z,9.16
2023-04-07T08:38:24.148Z,9.17
2023-04-07T08:39:24.107Z,9.17
2023-04-07T08:40:24.169Z,9.22
2023-04-07T08:41:24.103Z,9.23
2023-04-07T08:42:24.107Z,9.19
2023-04-07T08:43:24.064Z,9.19
2023-04-07T08:44:24.061Z,9.17
2023-04-07T08:45:24.074Z,9.13
2023-04-07T08:46:24.040Z,9.16
2023-04-07T08:47:24.066Z,9.22
2023-04-07T08:48:24.020Z,9.26
2023-04-07T08:49:23.999Z,9.30
2023-04-07T08:50:23.982Z,9.30
2023-04-07T08:51:23.989Z,9.32
2023-04-07T08:52:23.983Z,9.32
2023-04-07T08:53:23.954Z,9.32
2023-04-07T08:54:23.968Z,9.38
2023-04-07T08:55:23.980Z,9.37
2023-04-07T08:56:23.914Z,9.37
2023-04-07T08:57:23.924Z,9.37
2023-04-07T08:58:23.902Z,9.37
2023-04-07T08:59:23.876Z,9.38
2023-04-07T09:00:23.870Z,9.44
2023-04-07T09:01:23.877Z,9.48
2023-04-07T09:02:23.950Z,9.50
2023-04-07T09:03:23.915Z,9.53
2023-04-07T09:04:23.854Z,9.56
2023-04-07T09:05:23.835Z,9.56
2023-04-07T09:06:23.828Z,9.60
2023-04-07T09:07:23.809Z,9.62
2023-04-07T09:08:23.774Z,9.70
2023-04-07T09:09:23.778Z,9.74
2023-04-07T09:10:23.752Z,9.81
2023-04-07T09:11:23.740Z,9.88
2023-04-07T09:12:23.744Z,9.88
2023-04-07T09:13:23.725Z,9.95
2023-04-07T09:14:23.704Z,10.01
2023-04-07T09:15:23.703Z,9.95
2023-04-07T09:16:23.693Z,9.89
2023-04-07T09:17:23.736Z,9.86
2023-04-07T09:18:23.669Z,9.91
2023-04-07T09:19:23.660Z,9.96
2023-04-07T09:20:23.649Z,10.02
2023-04-07T09:21:23.634Z,10.09
2023-04-07T09:22:23.650Z,10.11
2023-04-07T09:23:23.610Z,10.11
2023-04-07T09:24:23.620Z,10.10
2023-04-07T09:25:23.639Z,10.13
2023-04-07T09:26:23.575Z,10.16
2023-04-07T09:27:23.583Z,10.14
2023-04-07T09:28:23.546Z,10.14
2023-04-07T09:29:23.554Z,10.16
2023-04-07T09:30:23.547Z,10.16
2023-04-07T09:31:23.537Z,10.16
2023-04-07T09:32:23.555Z,10.18
2023-04-07T09:33:23.498Z,10.18
2023-04-07T09:34:23.481Z,10.18
2023-04-07T09:35:23.476Z,10.17
2023-04-07T09:36:23.463Z,10.17
2023-04-07T09:37:23.484Z,10.13
2023-04-07T09:38:23.443Z,10.07
2023-04-07T09:39:23.447Z,10.07
2023-04-07T09:40:23.428Z,9.96
2023-04-07T09:41:23.456Z,9.93
2023-04-07T09:42:23.415Z,9.95
2023-04-07T09:43:23.391Z,9.98
2023-04-07T09:44:23.374Z,9.95
2023-04-07T09:45:33.169Z,9.85
2023-04-07T09:46:24.983Z,9.88
2023-04-07T09:47:23.383Z,9.88
2023-04-07T09:48:23.348Z,9.88
2023-04-07T09:49:23.321Z,9.93
2023-04-07T09:50:23.313Z,9.98
2023-04-07T09:51:23.302Z,9.99
2023-04-07T09:52:23.298Z,10.01
2023-04-07T09:53:23.371Z,10.02
2023-04-07T09:54:23.262Z,10.04
2023-04-07T09:55:23.278Z,10.07
2023-04-07T09:56:23.263Z,10.09
2023-04-07T09:57:23.254Z,10.11
2023-04-07T09:58:23.243Z,10.14
2023-04-07T09:59:23.259Z,10.13
2023-04-07T10:00:23.223Z,9.98
2023-04-07T10:01:23.323Z,9.95
2023-04-07T10:02:23.360Z,9.91
2023-04-07T10:03:23.294Z,9.81
2023-04-07T10:04:23.410Z,9.83
2023-04-07T10:05:23.243Z,9.83
2023-04-07T10:06:23.138Z,9.80
2023-04-07T10:07:23.136Z,9.78
2023-04-07T10:08:23.132Z,9.80
2023-04-07T10:09:23.123Z,9.80
2023-04-07T10:10:23.096Z,9.80
2023-04-07T10:11:23.076Z,9.81
2023-04-07T10:12:23.064Z,9.86
2023-04-07T10:13:23.054Z,9.85
2023-04-07T10:14:23.049Z,9.91
2023-04-07T10:15:23.069Z,9.99
2023-04-07T10:16:23.038Z,10.07
2023-04-07T10:17:23.038Z,10.16
2023-04-07T10:18:23.037Z,10.24
2023-04-07T10:19:22.992Z,10.22
2023-04-07T10:20:22.973Z,10.28
2023-04-07T10:21:22.990Z,10.36
2023-04-07T10:22:22.978Z,10.34
2023-04-07T10:23:22.949Z,10.20
2023-04-07T10:24:22.936Z,10.18
2023-04-07T10:25:22.948Z,10.20
2023-04-07T10:26:22.944Z,10.25
2023-04-07T10:27:22.905Z,10.26
2023-04-07T10:28:22.882Z,10.26
2023-04-07T10:29:22.895Z,10.24
2023-04-07T10:30:22.904Z,10.20
2023-04-07T10:31:22.958Z,10.18
2023-04-07T10:32:22.886Z,10.25
2023-04-07T10:33:22.885Z,10.34
2023-04-07T10:34:22.821Z,10.39
2023-04-07T10:35:22.878Z,10.46
2023-04-07T10:36:22.802Z,10.49
2023-04-07T10:37:22.812Z,10.54
2023-04-07T10:38:22.841Z,10.62
2023-04-07T10:39:22.780Z,10.65
2023-04-07T10:40:22.766Z,10.57
2023-04-07T10:41:22.918Z,10.57
2023-04-07T10:42:22.784Z,10.58
2023-04-07T10:43:22.729Z,10.44
2023-04-07T10:44:22.731Z,10.39
2023-04-07T10:45:22.704Z,10.36
2023-04-07T10:46:22.760Z,10.42
2023-04-07T10:47:22.691Z,10.42
2023-04-07T10:48:22.685Z,10.39
2023-04-07T10:49:22.662Z,10.39
2023-04-07T10:50:22.685Z,10.44
2023-04-07T10:51:22.638Z,10.36
2023-04-07T10:52:22.629Z,10.34
2023-04-07T10:53:22.669Z,10.32
2023-04-07T10:54:22.662Z,10.36
2023-04-07T10:55:22.598Z,10.43
2023-04-07T10:56:22.573Z,10.35
2023-04-07T10:57:22.605Z,10.39
2023-04-07T10:58:22.654Z,10.46
2023-04-07T10:59:22.564Z,10.49
2023-04-07T11:00:22.530Z,10.47
2023-04-07T11:01:22.562Z,10.55
2023-04-07T11:02:22.729Z,10.57
2023-04-07T11:03:22.722Z,10.60
2023-04-07T11:04:22.555Z,10.65
2023-04-07T11:05:22.488Z,10.70
2023-04-07T11:06:22.493Z,10.70
2023-04-07T11:07:22.477Z,10.69
2023-04-07T11:08:22.472Z,10.75
2023-04-07T11:09:22.427Z,10.83
2023-04-07T11:10:22.429Z,10.83
2023-04-07T11:11:22.412Z,10.81
2023-04-07T11:12:22.415Z,10.86
2023-04-07T11:13:22.386Z,10.91
2023-04-07T11:14:22.369Z,10.84
2023-04-07T11:15:22.416Z,10.80
2023-04-07T11:16:22.380Z,10.84
2023-04-07T11:17:22.389Z,10.94
2023-04-07T11:18:22.325Z,11.02
2023-04-07T11:19:22.359Z,11.06
2023-04-07T11:20:22.301Z,11.12
2023-04-07T11:21:22.296Z,11.19
2023-04-07T11:22:29.854Z,11.23
2023-04-07T11:23:22.279Z,11.23
2023-04-07T11:24:22.260Z,11.16
2023-04-07T11:25:22.255Z,11.16
2023-04-07T11:26:22.235Z,11.19
2023-04-07T11:27:22.249Z,11.26
2023-04-07T11:28:22.220Z,11.28
2023-04-07T11:29:22.207Z,11.31
2023-04-07T11:30:22.197Z,11.26
2023-04-07T11:31:22.224Z,11.23
2023-04-07T11:32:24.974Z,11.24
2023-04-07T11:33:22.194Z,11.30
2023-04-07T11:34:22.159Z,11.39
2023-04-07T11:35:22.132Z,11.45
2023-04-07T11:36:22.120Z,11.49
2023-04-07T11:37:22.139Z,11.45
2023-04-07T11:38:22.128Z,11.42
2023-04-07T11:39:22.194Z,11.38
2023-04-07T11:40:22.073Z,11.45
2023-04-07T11:41:22.072Z,11.49
2023-04-07T11:42:22.061Z,11.57
2023-04-07T11:43:22.056Z,11.56
2023-04-07T11:44:22.025Z,11.57
2023-04-07T11:45:22.021Z,11.59
2023-04-07T11:46:22.089Z,11.57
2023-04-07T11:47:22.006Z,11.62
2023-04-07T11:48:21.986Z,11.67
2023-04-07T11:49:21.970Z,11.75
2023-04-07T11:50:21.953Z,11.79
2023-04-07T11:51:21.948Z,11.81
2023-04-07T11:52:21.954Z,11.85
2023-04-07T11:53:21.928Z,11.88
2023-04-07T11:54:21.910Z,11.90
2023-04-07T11:55:22.529Z,11.94
2023-04-07T11:56:21.915Z,11.94
2023-04-07T11:57:21.891Z,11.93
2023-04-07T11:58:21.861Z,11.87
2023-04-07T11:59:21.852Z,11.79
2023-04-07T12:00:21.839Z,11.57
2023-04-07T12:01:21.839Z,11.59
2023-04-07T12:02:21.924Z,11.59
2023-04-07T12:03:22.029Z,11.63
2023-04-07T12:04:21.838Z,11.69
2023-04-07T12:05:21.788Z,11.74
2023-04-07T12:06:21.763Z,11.67
2023-04-07T12:07:21.778Z,11.64
2023-04-07T12:08:21.746Z,11.60
2023-04-07T12:09:21.736Z,11.59
2023-04-07T12:10:21.728Z,11.57
2023-04-07T12:11:21.718Z,11.48
2023-04-07T12:12:21.722Z,11.45
2023-04-07T12:13:21.711Z,11.46
2023-04-07T12:14:21.685Z,11.46
2023-04-07T12:15:21.668Z,11.44
2023-04-07T12:16:21.658Z,11.39
2023-04-07T12:17:21.695Z,11.39
2023-04-07T12:18:21.630Z,11.39
2023-04-07T12:19:21.636Z,11.41
2023-04-07T12:20:21.606Z,11.44
2023-04-07T12:21:21.604Z,11.45
2023-04-07T12:22:21.598Z,11.46
2023-04-07T12:23:21.581Z,11.48
2023-04-07T12:24:21.560Z,11.49
2023-04-07T12:25:21.553Z,11.45
2023-04-07T12:26:23.004Z,11.44
2023-04-07T12:27:32.543Z,11.41
2023-04-07T12:28:21.516Z,11.39
2023-04-07T12:29:21.514Z,11.39
2023-04-07T12:30:21.501Z,11.38
2023-04-07T12:31:21.517Z,11.38
2023-04-07T12:32:21.503Z,11.33
2023-04-07T12:33:21.458Z,11.31
2023-04-07T12:34:21.456Z,11.33
2023-04-07T12:35:21.440Z,11.35
2023-04-07T12:36:21.431Z,11.28
2023-04-07T12:37:21.430Z,11.13
2023-04-07T12:38:21.398Z,11.11
2023-04-07T12:39:21.394Z,11.12
2023-04-07T12:40:21.372Z,11.12
2023-04-07T12:41:21.375Z,11.11
2023-04-07T12:42:21.370Z,11.12
2023-04-07T12:43:21.345Z,11.11
2023-04-07T12:44:21.328Z,11.05
2023-04-07T12:45:21.321Z,11.05
2023-04-07T12:46:21.348Z,11.08
2023-04-07T12:47:21.355Z,11.05
2023-04-07T12:48:21.276Z,10.98
2023-04-07T12:49:21.285Z,10.93
2023-04-07T12:50:21.273Z,10.91
2023-04-07T12:51:21.262Z,10.91
2023-04-07T12:52:21.254Z,10.93
2023-04-07T12:53:21.225Z,10.94
2023-04-07T12:54:21.211Z,10.90
2023-04-07T12:55:21.215Z,10.88
2023-04-07T12:56:21.202Z,10.88
2023-04-07T12:57:21.192Z,10.86
2023-04-07T12:58:21.158Z,10.87
2023-04-07T12:59:21.154Z,10.83
2023-04-07T13:00:21.145Z,10.86
2023-04-07T13:01:21.206Z,10.90
2023-04-07T13:02:21.206Z,10.88
2023-04-07T13:03:21.270Z,10.81
2023-04-07T13:04:21.140Z,10.87
2023-04-07T13:05:21.104Z,10.94
2023-04-07T13:06:21.067Z,10.93
2023-04-07T13:07:21.087Z,10.98
2023-04-07T13:08:21.052Z,11.06
2023-04-07T13:09:21.032Z,11.17
2023-04-07T13:10:21.019Z,11.23
2023-04-07T13:11:21.015Z,11.21